createdAt,value
2016-10-10T00:00:48.631Z,11.51
2016-10-10T00:01:48.604Z,11.5
2016-10-10T00:02:48.579Z,11.48
2016-10-10T00:03:48.549Z,11.52
2016-10-10T00:04:48.533Z,11.47
2016-10-10T00:05:48.494Z,11.5
2016-10-10T00:06:48.467Z,11.48
2016-10-10T00:07:48.444Z,11.44
2016-10-10T00:08:48.413Z,11.48
2016-10-10T00:09:48.390Z,11.44
2016-10-10T00:10:48.359Z,11.51
2016-10-10T00:11:48.338Z,11.47
2016-10-10T00:12:48.312Z,11.44
2016-10-10T00:13:48.282Z,11.44
2016-10-10T00:14:48.253Z,11.43
2016-10-10T00:15:48.243Z,11.44
2016-10-10T00:16:48.199Z,11.44
2016-10-10T00:17:48.175Z,11.36
2016-10-10T00:18:48.148Z,11.43
2016-10-10T00:19:48.126Z,11.41
2016-10-10T00:20:48.146Z,11.4
2016-10-10T00:21:48.068Z,11.47
2016-10-10T00:22:48.038Z,11.44
2016-10-10T00:23:48.015Z,11.4
2016-10-10T00:24:47.989Z,11.45
2016-10-10T00:25:47.962Z,11.41
2016-10-10T00:26:47.932Z,11.41
2016-10-10T00:27:47.927Z,11.4
2016-10-10T00:28:47.876Z,11.3
2016-10-10T00:29:47.853Z,11.37
2016-10-10T00:30:47.825Z,11.37
2016-10-10T00:31:47.800Z,11.41
2016-10-10T00:32:47.775Z,11.41
2016-10-10T00:33:47.751Z,11.35
2016-10-10T00:34:47.719Z,11.33
2016-10-10T00:35:47.697Z,11.36
2016-10-10T00:36:47.667Z,11.35
2016-10-10T00:37:47.647Z,11.4
2016-10-10T00:38:47.616Z,11.3
2016-10-10T00:39:47.588Z,11.36
2016-10-10T00:40:47.557Z,11.33
2016-10-10T00:41:47.535Z,11.27
2016-10-10T00:42:47.506Z,11.36
2016-10-10T00:43:47.480Z,11.33
2016-10-10T00:44:47.469Z,11.35
2016-10-10T00:45:47.430Z,11.32
2016-10-10T00:46:47.414Z,11.3
2016-10-10T00:47:47.376Z,11.27
2016-10-10T00:48:47.347Z,11.37
2016-10-10T00:49:47.319Z,11.32
2016-10-10T00:50:47.293Z,11.36
2016-10-10T00:51:47.266Z,11.3
2016-10-10T00:52:47.252Z,11.35
2016-10-10T00:53:47.213Z,11.27
2016-10-10T00:54:47.187Z,11.29
2016-10-10T00:55:47.155Z,11.35
2016-10-10T00:56:47.129Z,11.36
2016-10-10T00:57:47.102Z,11.3
2016-10-10T00:58:47.078Z,11.35
2016-10-10T00:59:47.051Z,11.33
2016-10-10T01:00:47.024Z,11.32
2016-10-10T01:01:46.995Z,11.23
2016-10-10T01:02:46.972Z,11.36
2016-10-10T01:03:46.941Z,11.33
2016-10-10T01:04:46.926Z,11.33
2016-10-10T01:05:46.891Z,11.32
2016-10-10T01:06:46.863Z,11.3
2016-10-10T01:07:46.836Z,11.27
2016-10-10T01:08:46.809Z,11.27
2016-10-10T01:09:46.785Z,11.27
2016-10-10T01:10:46.755Z,11.32
2016-10-10T01:11:46.728Z,11.37
2016-10-10T01:12:46.702Z,11.41
2016-10-10T01:13:46.673Z,11.4
2016-10-10T01:14:46.648Z,11.32
2016-10-10T01:15:46.621Z,11.27
2016-10-10T01:16:46.590Z,11.36
2016-10-10T01:17:46.569Z,11.33
2016-10-10T01:18:46.538Z,11.29
2016-10-10T01:19:46.515Z,11.29
2016-10-10T01:20:46.484Z,11.23
2016-10-10T01:21:46.460Z,11.32
2016-10-10T01:22:46.431Z,11.32
2016-10-10T01:23:46.407Z,11.33
2016-10-10T01:24:46.378Z,11.27
2016-10-10T01:25:46.353Z,11.32
2016-10-10T01:26:46.322Z,11.3
2016-10-10T01:27:46.304Z,11.27
2016-10-10T01:28:46.287Z,11.35
2016-10-10T01:29:46.245Z,11.26
2016-10-10T01:30:46.221Z,11.14
2016-10-10T01:31:46.191Z,11.17
2016-10-10T01:32:46.461Z,11.14
2016-10-10T01:33:46.142Z,11.12
2016-10-10T01:34:46.111Z,11.08
2016-10-10T01:35:46.085Z,11.11
2016-10-10T01:36:46.058Z,11.02
2016-10-10T01:37:46.031Z,10.97
2016-10-10T01:38:46.002Z,10.96
2016-10-10T01:39:45.976Z,10.96
2016-10-10T01:40:45.963Z,10.96
2016-10-10T01:41:45.920Z,10.92
2016-10-10T01:42:45.895Z,10.89
2016-10-10T01:43:45.869Z,10.97
2016-10-10T01:44:45.840Z,10.89
2016-10-10T01:45:45.811Z,10.92
2016-10-10T01:46:45.787Z,10.9
2016-10-10T01:47:45.760Z,10.84
2016-10-10T01:48:45.732Z,10.89
2016-10-10T01:49:45.706Z,10.82
2016-10-10T01:50:45.679Z,10.79
2016-10-10T01:51:45.650Z,10.74
2016-10-10T01:52:45.626Z,10.76
2016-10-10T01:53:45.598Z,10.69
2016-10-10T01:54:45.571Z,10.79
2016-10-10T01:55:45.543Z,10.71
2016-10-10T01:56:45.519Z,10.67
2016-10-10T01:57:45.489Z,10.6
2016-10-10T01:58:45.474Z,10.64
2016-10-10T01:59:45.435Z,10.74
2016-10-10T02:00:45.418Z,10.59
2016-10-10T02:01:45.380Z,10.67
2016-10-10T02:02:45.353Z,10.69
2016-10-10T02:03:45.325Z,10.72
2016-10-10T02:04:45.299Z,10.72
2016-10-10T02:05:45.268Z,10.76
2016-10-10T02:06:45.244Z,10.74
2016-10-10T02:07:45.216Z,10.74
2016-10-10T02:08:45.189Z,10.71
2016-10-10T02:09:45.165Z,10.78
2016-10-10T02:10:45.140Z,10.79
2016-10-10T02:11:45.111Z,10.69
2016-10-10T02:12:45.082Z,10.74
2016-10-10T02:13:45.067Z,10.67
2016-10-10T02:14:45.033Z,10.69
2016-10-10T02:15:45.000Z,10.56
2016-10-10T02:16:44.970Z,10.71
2016-10-10T02:17:44.942Z,10.68
2016-10-10T02:18:44.917Z,10.67
2016-10-10T02:19:44.902Z,10.68
2016-10-10T02:20:44.864Z,10.67
2016-10-10T02:21:44.836Z,10.71
2016-10-10T02:22:44.810Z,10.68
2016-10-10T02:23:44.825Z,10.64
2016-10-10T02:24:44.752Z,10.63
2016-10-10T02:25:44.746Z,10.6
2016-10-10T02:26:44.699Z,10.61
2016-10-10T02:27:44.672Z,10.71
2016-10-10T02:28:44.647Z,10.69
2016-10-10T02:29:44.615Z,10.68
2016-10-10T02:30:44.590Z,10.71
2016-10-10T02:31:44.814Z,10.72
2016-10-10T02:32:44.535Z,10.72
2016-10-10T02:33:44.505Z,10.64
2016-10-10T02:34:44.482Z,10.74
2016-10-10T02:35:44.458Z,10.69
2016-10-10T02:36:44.424Z,10.59
2016-10-10T02:37:44.396Z,10.63
2016-10-10T02:38:44.369Z,10.69
2016-10-10T02:39:44.346Z,10.61
2016-10-10T02:40:44.314Z,10.6
2016-10-10T02:41:44.292Z,10.72
2016-10-10T02:42:44.261Z,10.6
2016-10-10T02:43:44.235Z,10.71
2016-10-10T02:44:44.207Z,10.76
2016-10-10T02:45:44.178Z,10.64
2016-10-10T02:46:44.155Z,10.74
2016-10-10T02:47:44.124Z,10.71
2016-10-10T02:48:44.099Z,10.74
2016-10-10T02:49:44.068Z,10.79
2016-10-10T02:50:44.044Z,10.76
2016-10-10T02:51:44.014Z,10.76
2016-10-10T02:52:43.987Z,10.79
2016-10-10T02:53:43.957Z,10.79
2016-10-10T02:54:43.933Z,10.82
2016-10-10T02:55:43.905Z,10.89
2016-10-10T02:56:43.878Z,10.74
2016-10-10T02:57:43.853Z,10.86
2016-10-10T02:58:43.823Z,10.79
2016-10-10T02:59:43.802Z,10.82
2016-10-10T03:00:43.770Z,10.82
2016-10-10T03:01:43.748Z,10.81
2016-10-10T03:02:43.713Z,10.86
2016-10-10T03:03:43.683Z,10.86
2016-10-10T03:04:43.661Z,10.79
2016-10-10T03:05:43.631Z,10.81
2016-10-10T03:06:43.607Z,10.87
2016-10-10T03:07:43.576Z,10.84
2016-10-10T03:08:43.550Z,10.82
2016-10-10T03:09:43.521Z,10.86
2016-10-10T03:10:43.502Z,10.81
2016-10-10T03:11:43.470Z,10.78
2016-10-10T03:12:43.439Z,10.81
2016-10-10T03:13:43.415Z,10.82
2016-10-10T03:14:43.386Z,10.81
2016-10-10T03:15:43.360Z,10.9
2016-10-10T03:16:43.330Z,10.86
2016-10-10T03:17:43.303Z,10.92
2016-10-10T03:18:43.280Z,10.89
2016-10-10T03:19:43.544Z,10.9
2016-10-10T03:20:43.220Z,10.82
2016-10-10T03:21:43.196Z,10.93
2016-10-10T03:22:43.166Z,10.86
2016-10-10T03:23:43.139Z,10.93
2016-10-10T03:24:43.114Z,10.94
2016-10-10T03:25:43.086Z,10.96
2016-10-10T03:26:43.057Z,10.93
2016-10-10T03:27:43.031Z,10.96
2016-10-10T03:28:43.008Z,10.99
2016-10-10T03:29:43.280Z,10.97
2016-10-10T03:30:42.951Z,10.96
2016-10-10T03:31:42.921Z,10.94
2016-10-10T03:32:42.899Z,11.02
2016-10-10T03:33:42.869Z,10.94
2016-10-10T03:34:42.844Z,11
2016-10-10T03:35:42.815Z,10.99
2016-10-10T03:36:42.787Z,10.97
2016-10-10T03:37:42.761Z,10.94
2016-10-10T03:38:42.735Z,11.04
2016-10-10T03:39:43.009Z,11.08
2016-10-10T03:40:42.679Z,10.94
2016-10-10T03:41:42.651Z,10.93
2016-10-10T03:42:42.632Z,11.04
2016-10-10T03:43:43.206Z,10.92
2016-10-10T03:44:42.578Z,10.93
2016-10-10T03:45:42.550Z,10.89
2016-10-10T03:46:42.516Z,10.84
2016-10-10T03:47:42.488Z,10.86
2016-10-10T03:48:42.463Z,10.81
2016-10-10T03:49:42.436Z,10.89
2016-10-10T03:50:42.409Z,10.75
2016-10-10T03:51:42.376Z,10.72
2016-10-10T03:52:42.355Z,10.76
2016-10-10T03:53:42.325Z,10.76
2016-10-10T03:54:42.298Z,10.74
2016-10-10T03:55:42.272Z,10.76
2016-10-10T03:56:42.241Z,10.69
2016-10-10T03:57:42.218Z,10.71
2016-10-10T03:58:42.192Z,10.69
2016-10-10T03:59:42.162Z,10.64
2016-10-10T04:00:42.133Z,10.69
2016-10-10T04:01:42.404Z,10.64
2016-10-10T04:02:42.079Z,10.64
2016-10-10T04:03:42.061Z,10.6
2016-10-10T04:04:42.023Z,10.59
2016-10-10T04:05:41.998Z,10.49
2016-10-10T04:06:41.968Z,10.56
2016-10-10T04:07:41.945Z,10.6
2016-10-10T04:08:41.911Z,10.57
2016-10-10T04:09:41.886Z,10.48
2016-10-10T04:10:41.857Z,10.46
2016-10-10T04:11:41.833Z,10.42
2016-10-10T04:12:41.800Z,10.38
2016-10-10T04:13:41.775Z,10.4
2016-10-10T04:14:41.745Z,10.35
2016-10-10T04:15:41.719Z,10.33
2016-10-10T04:16:41.694Z,10.31
2016-10-10T04:17:41.663Z,10.34
2016-10-10T04:18:41.637Z,10.26
2016-10-10T04:19:41.609Z,10.33
2016-10-10T04:20:41.583Z,10.26
2016-10-10T04:21:41.555Z,10.3
2016-10-10T04:22:41.523Z,10.17
2016-10-10T04:23:41.497Z,10.2
2016-10-10T04:24:41.471Z,10.22
2016-10-10T04:25:41.455Z,10.17
2016-10-10T04:26:41.412Z,10.09
2016-10-10T04:27:41.386Z,10.22
2016-10-10T04:28:41.355Z,10.16
2016-10-10T04:29:41.328Z,10.04
2016-10-10T04:30:41.305Z,10.02
2016-10-10T04:31:41.275Z,10.02
2016-10-10T04:32:41.243Z,10.04
2016-10-10T04:33:41.215Z,10.04
2016-10-10T04:34:41.188Z,10.02
2016-10-10T04:35:41.159Z,10.04
2016-10-10T04:36:41.134Z,10.07
2016-10-10T04:37:41.105Z,10.07
2016-10-10T04:38:41.077Z,10.15
2016-10-10T04:39:41.087Z,10.09
2016-10-10T04:40:41.020Z,9.99
2016-10-10T04:41:40.992Z,10.02
2016-10-10T04:42:40.966Z,10.01
2016-10-10T04:43:40.931Z,10.04
2016-10-10T04:44:40.909Z,9.92
2016-10-10T04:45:40.877Z,9.99
2016-10-10T04:46:40.850Z,9.94
2016-10-10T04:47:40.821Z,9.97
2016-10-10T04:48:40.796Z,9.91
2016-10-10T04:49:40.766Z,9.92
2016-10-10T04:50:40.739Z,9.99
2016-10-10T04:51:40.710Z,9.91
2016-10-10T04:52:40.683Z,10.02
2016-10-10T04:53:40.660Z,9.92
2016-10-10T04:54:40.666Z,9.94
2016-10-10T04:55:40.638Z,9.94
2016-10-10T04:56:40.570Z,9.97
2016-10-10T04:57:40.544Z,9.87
2016-10-10T04:58:40.515Z,9.91
2016-10-10T04:59:40.494Z,9.87
2016-10-10T05:00:40.457Z,9.82
2016-10-10T05:01:40.427Z,9.8
2016-10-10T05:02:40.402Z,9.76
2016-10-10T05:03:40.375Z,9.79
2016-10-10T05:04:40.347Z,9.73
2016-10-10T05:05:40.316Z,9.62
2016-10-10T05:06:40.288Z,9.72
2016-10-10T05:07:40.259Z,9.58
2016-10-10T05:08:40.231Z,9.59
2016-10-10T05:09:40.205Z,9.62
2016-10-10T05:10:40.176Z,9.58
2016-10-10T05:11:40.150Z,9.62
2016-10-10T05:12:40.127Z,9.56
2016-10-10T05:13:40.092Z,9.58
2016-10-10T05:14:40.062Z,9.61
2016-10-10T05:15:40.052Z,9.62
2016-10-10T05:16:40.007Z,9.55
2016-10-10T05:17:39.983Z,9.58
2016-10-10T05:18:39.952Z,9.58
2016-10-10T05:19:39.923Z,9.58
2016-10-10T05:20:39.895Z,9.58
2016-10-10T05:21:39.867Z,9.58
2016-10-10T05:22:39.839Z,9.59
2016-10-10T05:23:39.807Z,9.58
2016-10-10T05:24:39.777Z,9.58
2016-10-10T05:25:39.753Z,9.47
2016-10-10T05:26:39.720Z,9.5
2016-10-10T05:27:39.694Z,9.46
2016-10-10T05:28:39.674Z,9.58
2016-10-10T05:29:39.641Z,9.46
2016-10-10T05:30:39.610Z,9.47
2016-10-10T05:31:39.596Z,9.46
2016-10-10T05:32:39.558Z,9.46
2016-10-10T05:33:39.525Z,9.41
2016-10-10T05:34:39.497Z,9.41
2016-10-10T05:35:39.467Z,9.28
2016-10-10T05:36:39.442Z,9.39
2016-10-10T05:37:39.411Z,9.39
2016-10-10T05:38:39.383Z,9.25
2016-10-10T05:39:39.356Z,9.37
2016-10-10T05:40:39.326Z,9.29
2016-10-10T05:41:39.299Z,9.29
2016-10-10T05:42:39.270Z,9.28
2016-10-10T05:43:39.250Z,9.23
2016-10-10T05:44:39.215Z,9.19
2016-10-10T05:45:39.183Z,9.26
2016-10-10T05:46:39.161Z,9.28
2016-10-10T05:47:39.127Z,9.29
2016-10-10T05:48:39.098Z,9.23
2016-10-10T05:49:39.082Z,9.25
2016-10-10T05:50:39.043Z,9.26
2016-10-10T05:51:39.010Z,9.21
2016-10-10T05:52:38.988Z,9.16
2016-10-10T05:53:38.959Z,9.14
2016-10-10T05:54:38.926Z,9.14
2016-10-10T05:55:38.900Z,9.1
2016-10-10T05:56:38.868Z,9.14
2016-10-10T05:57:38.841Z,9.1
2016-10-10T05:58:38.815Z,9.11
2016-10-10T05:59:38.792Z,9.04
2016-10-10T06:00:38.754Z,9.06
2016-10-10T06:01:38.747Z,9.02
2016-10-10T06:02:38.697Z,9.04
2016-10-10T06:03:38.674Z,9
2016-10-10T06:04:38.637Z,9.02
2016-10-10T06:05:38.612Z,9.02
2016-10-10T06:06:38.586Z,9.03
2016-10-10T06:07:38.560Z,8.95
2016-10-10T06:08:38.526Z,9.04
2016-10-10T06:09:38.503Z,8.95
2016-10-10T06:10:38.468Z,9
2016-10-10T06:11:38.442Z,9.02
2016-10-10T06:12:38.412Z,9.06
2016-10-10T06:13:38.399Z,9.04
2016-10-10T06:14:38.356Z,8.89
2016-10-10T06:15:38.324Z,8.88
2016-10-10T06:16:38.296Z,8.92
2016-10-10T06:17:38.271Z,8.99
2016-10-10T06:18:38.244Z,8.89
2016-10-10T06:19:38.510Z,8.94
2016-10-10T06:20:38.189Z,9.03
2016-10-10T06:21:38.165Z,8.87
2016-10-10T06:22:38.127Z,8.95
2016-10-10T06:23:38.103Z,8.94
2016-10-10T06:24:38.071Z,8.91
2016-10-10T06:25:38.040Z,8.97
2016-10-10T06:26:38.011Z,8.89
2016-10-10T06:27:37.985Z,8.97
2016-10-10T06:28:37.953Z,8.91
2016-10-10T06:29:37.924Z,8.89
2016-10-10T06:30:37.902Z,8.95
2016-10-10T06:31:37.871Z,8.97
2016-10-10T06:32:37.841Z,8.97
2016-10-10T06:33:37.808Z,9.08
2016-10-10T06:34:37.785Z,9.06
2016-10-10T06:35:37.758Z,9.06
2016-10-10T06:36:37.727Z,9.1
2016-10-10T06:37:37.695Z,9.08
2016-10-10T06:38:37.683Z,9.13
2016-10-10T06:39:37.648Z,9.16
2016-10-10T06:40:37.612Z,9.21
2016-10-10T06:41:37.583Z,9.18
2016-10-10T06:42:37.554Z,9.25
2016-10-10T06:43:37.528Z,9.21
2016-10-10T06:44:37.495Z,9.22
2016-10-10T06:45:37.470Z,9.23
2016-10-10T06:46:37.449Z,9.22
2016-10-10T06:47:37.413Z,9.18
2016-10-10T06:48:37.388Z,9.21
2016-10-10T06:49:37.357Z,9.23
2016-10-10T06:50:37.332Z,9.21
2016-10-10T06:51:37.301Z,9.21
2016-10-10T06:52:37.274Z,9.22
2016-10-10T06:53:37.254Z,9.25
2016-10-10T06:54:37.216Z,9.29
2016-10-10T06:55:37.190Z,9.26
2016-10-10T06:56:37.163Z,9.23
2016-10-10T06:57:37.135Z,9.26
2016-10-10T06:58:37.106Z,9.23
2016-10-10T06:59:37.078Z,9.23
2016-10-10T07:00:37.052Z,9.23
2016-10-10T07:01:37.020Z,9.21
2016-10-10T07:02:36.991Z,9.25
2016-10-10T07:03:36.960Z,9.28
2016-10-10T07:04:36.936Z,9.23
2016-10-10T07:05:36.906Z,9.16
2016-10-10T07:06:36.894Z,9.26
2016-10-10T07:07:36.856Z,9.22
2016-10-10T07:08:36.821Z,9.22
2016-10-10T07:09:36.794Z,9.29
2016-10-10T07:10:36.775Z,9.39
2016-10-10T07:11:36.739Z,9.37
2016-10-10T07:12:36.709Z,9.34
2016-10-10T07:13:36.680Z,9.43
2016-10-10T07:14:36.652Z,9.43
2016-10-10T07:15:36.627Z,9.54
2016-10-10T07:16:36.599Z,9.46
2016-10-10T07:17:36.569Z,9.51
2016-10-10T07:18:36.543Z,9.46
2016-10-10T07:19:36.526Z,9.58
2016-10-10T07:20:36.486Z,9.59
2016-10-10T07:21:36.458Z,9.69
2016-10-10T07:22:36.432Z,9.73
2016-10-10T07:23:36.402Z,9.73
2016-10-10T07:24:36.377Z,9.77
2016-10-10T07:25:36.343Z,9.86
2016-10-10T07:26:36.316Z,9.94
2016-10-10T07:27:36.292Z,9.95
2016-10-10T07:28:36.260Z,9.97
2016-10-10T07:29:36.239Z,10.22
2016-10-10T07:30:36.524Z,10.26
2016-10-10T07:31:36.184Z,10.28
2016-10-10T07:32:36.223Z,10.44
2016-10-10T07:33:36.127Z,10.57
2016-10-10T07:34:36.106Z,10.53
2016-10-10T07:35:36.081Z,10.68
2016-10-10T07:36:36.050Z,10.75
2016-10-10T07:37:37.180Z,10.79
2016-10-10T07:38:35.998Z,10.9
2016-10-10T07:39:35.968Z,10.97
2016-10-10T07:40:35.943Z,11.07
2016-10-10T07:41:35.920Z,11.22
2016-10-10T07:42:35.891Z,11.19
2016-10-10T07:43:35.862Z,11.33
2016-10-10T07:44:35.841Z,11.35
2016-10-10T07:45:35.815Z,11.44
2016-10-10T07:46:35.791Z,11.48
2016-10-10T07:47:35.761Z,11.45
2016-10-10T07:48:35.741Z,11.55
2016-10-10T07:49:35.713Z,11.62
2016-10-10T07:50:35.683Z,11.52
2016-10-10T07:51:35.659Z,11.59
2016-10-10T07:52:35.640Z,11.54
2016-10-10T07:53:35.616Z,11.72
2016-10-10T07:54:35.586Z,11.77
2016-10-10T07:55:35.610Z,11.77
2016-10-10T07:56:35.537Z,11.7
2016-10-10T07:57:35.509Z,11.75
2016-10-10T07:58:35.485Z,11.68
2016-10-10T07:59:35.463Z,11.72
2016-10-10T08:00:35.435Z,11.66
2016-10-10T08:01:35.410Z,11.75
2016-10-10T08:02:35.385Z,11.88
2016-10-10T08:03:35.359Z,11.87
2016-10-10T08:04:35.333Z,11.9
2016-10-10T08:05:35.311Z,11.91
2016-10-10T08:06:35.283Z,11.95
2016-10-10T08:07:35.261Z,12
2016-10-10T08:08:35.233Z,12.04
2016-10-10T08:09:35.208Z,12.1
2016-10-10T08:10:35.186Z,12.09
2016-10-10T08:11:35.158Z,12.18
2016-10-10T08:12:35.140Z,12.2
2016-10-10T08:13:35.405Z,12.04
2016-10-10T08:14:35.132Z,12.09
2016-10-10T08:15:35.060Z,12.13
2016-10-10T08:16:35.043Z,12.18
2016-10-10T08:17:35.012Z,12.25
2016-10-10T08:18:34.986Z,12.2
2016-10-10T08:19:34.959Z,12.28
2016-10-10T08:20:34.940Z,12.24
2016-10-10T08:21:34.911Z,12.27
2016-10-10T08:22:34.892Z,12.36
2016-10-10T08:23:34.864Z,12.39
2016-10-10T08:24:34.842Z,12.53
2016-10-10T08:25:35.120Z,12.57
2016-10-10T08:26:34.791Z,12.6
2016-10-10T08:27:34.765Z,12.49
2016-10-10T08:28:34.747Z,12.61
2016-10-10T08:29:34.719Z,12.61
2016-10-10T08:30:34.698Z,12.7
2016-10-10T08:31:34.673Z,12.76
2016-10-10T08:32:34.650Z,12.85
2016-10-10T08:33:34.625Z,12.85
2016-10-10T08:34:34.597Z,13.01
2016-10-10T08:35:34.575Z,13.04
2016-10-10T08:36:34.553Z,13.16
2016-10-10T08:37:34.531Z,13.16
2016-10-10T08:38:34.656Z,13.04
2016-10-10T08:39:34.486Z,13.03
2016-10-10T08:40:34.459Z,13.01
2016-10-10T08:41:34.436Z,12.95
2016-10-10T08:42:34.412Z,12.87
2016-10-10T08:43:34.390Z,12.85
2016-10-10T08:44:34.369Z,12.82
2016-10-10T08:45:34.343Z,12.85
2016-10-10T08:46:34.321Z,12.78
2016-10-10T08:47:34.298Z,12.78
2016-10-10T08:48:34.272Z,12.79
2016-10-10T08:49:34.546Z,12.79
2016-10-10T08:50:34.223Z,12.78
2016-10-10T08:51:34.202Z,12.78
2016-10-10T08:52:34.178Z,12.7
2016-10-10T08:53:34.150Z,12.61
2016-10-10T08:54:34.133Z,12.5
2016-10-10T08:55:34.109Z,12.58
2016-10-10T08:56:35.181Z,12.47
2016-10-10T08:57:34.064Z,12.55
2016-10-10T08:58:34.030Z,12.53
2016-10-10T08:59:34.012Z,12.46
2016-10-10T09:00:34.295Z,12.37
2016-10-10T09:01:33.957Z,12.29
2016-10-10T09:02:33.937Z,12.2
2016-10-10T09:03:33.910Z,12.27
2016-10-10T09:04:33.885Z,12.25
2016-10-10T09:05:33.864Z,12.21
2016-10-10T09:06:33.845Z,12.21
2016-10-10T09:07:33.810Z,12.15
2016-10-10T09:08:33.791Z,12.17
2016-10-10T09:09:33.763Z,12.12
2016-10-10T09:10:33.740Z,12.2
2016-10-10T09:11:33.720Z,12.12
2016-10-10T09:12:33.688Z,12.17
2016-10-10T09:13:33.662Z,12.12
2016-10-10T09:14:33.639Z,12.13
2016-10-10T09:15:33.615Z,12.15
2016-10-10T09:16:33.591Z,12.15
2016-10-10T09:17:33.566Z,12.13
2016-10-10T09:18:33.537Z,12.17
2016-10-10T09:19:33.519Z,12.1
2016-10-10T09:20:33.490Z,12.2
2016-10-10T09:21:33.466Z,12.15
2016-10-10T09:22:33.440Z,12.17
2016-10-10T09:23:33.419Z,12.12
2016-10-10T09:24:33.390Z,12.17
2016-10-10T09:25:33.370Z,12.03
2016-10-10T09:26:33.366Z,12.06
2016-10-10T09:27:33.320Z,12.09
2016-10-10T09:28:33.294Z,12.04
2016-10-10T09:29:33.265Z,12.18
2016-10-10T09:30:33.248Z,12.07
2016-10-10T09:31:33.220Z,12.02
2016-10-10T09:32:33.191Z,11.95
2016-10-10T09:33:33.175Z,12
2016-10-10T09:34:33.142Z,12.09
2016-10-10T09:35:33.118Z,12.03
2016-10-10T09:36:33.095Z,12.1
2016-10-10T09:37:33.069Z,12
2016-10-10T09:38:33.043Z,11.88
2016-10-10T09:39:33.016Z,11.99
2016-10-10T09:40:32.996Z,12.03
2016-10-10T09:41:32.968Z,12
2016-10-10T09:42:32.945Z,12.04
2016-10-10T09:43:32.920Z,12.07
2016-10-10T09:44:32.895Z,12.1
2016-10-10T09:45:32.865Z,12.07
2016-10-10T09:46:32.843Z,11.97
2016-10-10T09:47:32.817Z,12.06
2016-10-10T09:48:32.801Z,12.1
2016-10-10T09:49:32.770Z,12.12
2016-10-10T09:50:32.745Z,12.21
2016-10-10T09:51:32.718Z,12.18
2016-10-10T09:52:32.692Z,12.27
2016-10-10T09:53:32.670Z,12.29
2016-10-10T09:54:32.643Z,12.4
2016-10-10T09:55:32.618Z,12.54
2016-10-10T09:56:32.597Z,12.54
2016-10-10T09:57:32.573Z,12.49
2016-10-10T09:58:32.547Z,12.57
2016-10-10T09:59:32.523Z,12.58
2016-10-10T10:00:32.500Z,12.47
2016-10-10T10:01:32.476Z,12.55
2016-10-10T10:02:32.453Z,12.49
2016-10-10T10:03:32.427Z,12.55
2016-10-10T10:04:32.406Z,12.55
2016-10-10T10:05:32.380Z,12.58
2016-10-10T10:06:32.356Z,12.46
2016-10-10T10:07:32.331Z,12.57
2016-10-10T10:08:32.313Z,12.53
2016-10-10T10:09:32.279Z,12.57
2016-10-10T10:10:32.260Z,12.55
2016-10-10T10:11:32.236Z,12.58
2016-10-10T10:12:32.228Z,12.36
2016-10-10T10:13:32.187Z,12.35
2016-10-10T10:14:32.170Z,12.37
2016-10-10T10:15:32.143Z,12.35
2016-10-10T10:16:32.119Z,12.39
2016-10-10T10:17:32.089Z,12.5
2016-10-10T10:18:32.068Z,12.5
2016-10-10T10:19:32.042Z,12.53
2016-10-10T10:20:32.022Z,12.46
2016-10-10T10:21:31.996Z,12.61
2016-10-10T10:22:31.969Z,12.68
2016-10-10T10:23:31.945Z,12.64
2016-10-10T10:24:31.920Z,12.79
2016-10-10T10:25:31.898Z,12.8
2016-10-10T10:26:31.874Z,12.93
2016-10-10T10:27:31.850Z,12.93
2016-10-10T10:28:31.826Z,13.03
2016-10-10T10:29:31.809Z,13.13
2016-10-10T10:30:31.778Z,13.18
2016-10-10T10:31:31.753Z,13.22
2016-10-10T10:32:31.733Z,13.22
2016-10-10T10:33:31.707Z,13.28
2016-10-10T10:34:31.687Z,13.37
2016-10-10T10:35:31.662Z,13.39
2016-10-10T10:36:31.642Z,13.46
2016-10-10T10:37:31.616Z,13.5
2016-10-10T10:38:31.598Z,13.47
2016-10-10T10:39:31.573Z,13.57
2016-10-10T10:40:31.551Z,13.57
2016-10-10T10:41:31.964Z,13.54
2016-10-10T10:42:31.505Z,13.49
2016-10-10T10:43:31.475Z,13.39
2016-10-10T10:44:31.455Z,13.31
2016-10-10T10:45:31.432Z,13.2
2016-10-10T10:46:31.412Z,13.22
2016-10-10T10:47:31.387Z,13.18
2016-10-10T10:48:31.362Z,13.2
2016-10-10T10:49:31.345Z,13.2
2016-10-10T10:50:31.320Z,13.12
2016-10-10T10:51:31.297Z,13.15
2016-10-10T10:52:31.270Z,13.03
2016-10-10T10:53:31.247Z,12.94
2016-10-10T10:54:31.223Z,12.86
2016-10-10T10:55:31.544Z,12.87
2016-10-10T10:56:31.180Z,12.85
2016-10-10T10:57:31.151Z,12.87
2016-10-10T10:58:31.130Z,12.83
2016-10-10T10:59:31.104Z,12.93
2016-10-10T11:00:31.091Z,13.05
2016-10-10T11:01:31.060Z,13.15
2016-10-10T11:02:31.034Z,13.2
2016-10-10T11:03:31.010Z,13.28
2016-10-10T11:04:30.990Z,13.39
2016-10-10T11:05:30.969Z,13.39
2016-10-10T11:06:30.942Z,13.44
2016-10-10T11:07:30.916Z,13.49
2016-10-10T11:08:30.897Z,13.46
2016-10-10T11:09:30.873Z,13.53
2016-10-10T11:10:30.867Z,13.47
2016-10-10T11:11:30.826Z,13.46
2016-10-10T11:12:30.802Z,13.42
2016-10-10T11:13:30.780Z,13.47
2016-10-10T11:14:30.759Z,13.39
2016-10-10T11:15:30.733Z,13.42
2016-10-10T11:16:30.714Z,13.42
2016-10-10T11:17:30.690Z,13.41
2016-10-10T11:18:30.664Z,13.5
2016-10-10T11:19:30.646Z,13.39
2016-10-10T11:20:30.620Z,13.5
2016-10-10T11:21:30.596Z,13.33
2016-10-10T11:22:30.888Z,13.33
2016-10-10T11:23:30.551Z,13.37
2016-10-10T11:24:30.535Z,13.33
2016-10-10T11:25:30.506Z,13.35
2016-10-10T11:26:30.482Z,13.37
2016-10-10T11:27:30.828Z,13.37
2016-10-10T11:28:30.449Z,13.46
2016-10-10T11:29:30.412Z,13.46
2016-10-10T11:30:30.391Z,13.38
2016-10-10T11:31:30.367Z,13.39
2016-10-10T11:32:30.343Z,13.42
2016-10-10T11:33:30.324Z,13.41
2016-10-10T11:34:30.302Z,13.35
2016-10-10T11:35:30.280Z,13.37
2016-10-10T11:36:30.257Z,13.33
2016-10-10T11:37:30.231Z,13.25
2016-10-10T11:38:30.208Z,13.19
2016-10-10T11:39:30.184Z,13.2
2016-10-10T11:40:30.214Z,13.23
2016-10-10T11:41:30.142Z,13.16
2016-10-10T11:42:30.119Z,13.09
2016-10-10T11:43:30.134Z,13.04
2016-10-10T11:44:30.103Z,12.98
2016-10-10T11:45:30.046Z,13.05
2016-10-10T11:46:30.024Z,13.05
2016-10-10T11:47:30.001Z,13.08
2016-10-10T11:48:29.976Z,13.11
2016-10-10T11:49:29.955Z,13.01
2016-10-10T11:50:29.931Z,13.03
2016-10-10T11:51:30.206Z,13.01
2016-10-10T11:52:29.878Z,13.05
2016-10-10T11:53:29.886Z,13.13
2016-10-10T11:54:29.831Z,13.16
2016-10-10T11:55:29.808Z,13.13
2016-10-10T11:56:29.785Z,13.23
2016-10-10T11:57:29.762Z,13.2
2016-10-10T11:58:29.737Z,13.12
2016-10-10T11:59:29.715Z,13.19
2016-10-10T12:00:29.686Z,13.2
2016-10-10T12:01:29.665Z,13.22
2016-10-10T12:02:29.638Z,13.2
2016-10-10T12:03:29.686Z,13.2
2016-10-10T12:04:29.593Z,13.12
2016-10-10T12:05:29.569Z,13.15
2016-10-10T12:06:29.539Z,13.16
2016-10-10T12:07:29.520Z,13.03
2016-10-10T12:08:29.495Z,13
2016-10-10T12:09:29.471Z,13.04
2016-10-10T12:10:29.447Z,12.98
2016-10-10T12:11:29.426Z,13.01
2016-10-10T12:12:29.402Z,12.98
2016-10-10T12:13:29.452Z,12.94
2016-10-10T12:14:29.356Z,12.97
2016-10-10T12:15:29.332Z,12.97
2016-10-10T12:16:29.303Z,13.01
2016-10-10T12:17:29.281Z,12.97
2016-10-10T12:18:29.254Z,13.11
2016-10-10T12:19:29.237Z,13
2016-10-10T12:20:29.214Z,13.01
2016-10-10T12:21:29.180Z,12.97
2016-10-10T12:22:29.160Z,12.91
2016-10-10T12:23:29.155Z,12.87
2016-10-10T12:24:29.113Z,12.86
2016-10-10T12:25:29.086Z,12.85
2016-10-10T12:26:29.060Z,12.86
2016-10-10T12:27:29.334Z,12.83
2016-10-10T12:28:29.012Z,12.82
2016-10-10T12:29:29.001Z,12.83
2016-10-10T12:30:28.962Z,12.86
2016-10-10T12:31:28.938Z,12.97
2016-10-10T12:32:28.915Z,12.97
2016-10-10T12:33:28.891Z,13.09
2016-10-10T12:34:28.871Z,13.18
2016-10-10T12:35:28.844Z,13.22
2016-10-10T12:36:28.818Z,13.28
2016-10-10T12:37:29.137Z,13.39
2016-10-10T12:38:28.773Z,13.35
2016-10-10T12:39:29.109Z,13.49
2016-10-10T12:40:28.740Z,13.62
2016-10-10T12:41:28.699Z,13.6
2016-10-10T12:42:28.675Z,13.56
2016-10-10T12:43:28.658Z,13.59
2016-10-10T12:44:28.631Z,13.56
2016-10-10T12:45:28.608Z,13.49
2016-10-10T12:46:28.585Z,13.49
2016-10-10T12:47:28.563Z,13.46
2016-10-10T12:48:28.562Z,13.39
2016-10-10T12:49:28.517Z,13.42
2016-10-10T12:50:28.489Z,13.39
2016-10-10T12:51:28.468Z,13.31
2016-10-10T12:52:28.446Z,13.41
2016-10-10T12:53:28.421Z,13.38
2016-10-10T12:54:28.694Z,13.49
2016-10-10T12:55:28.375Z,13.5
2016-10-10T12:56:28.351Z,13.49
2016-10-10T12:57:28.407Z,13.62
2016-10-10T12:58:28.306Z,13.6
2016-10-10T12:59:28.280Z,13.68
2016-10-10T13:00:28.256Z,13.6
2016-10-10T13:01:28.232Z,13.59